sensor_id;sensor_type;location;lat;lon;timestamp;P1;durP1;ratioP1;P2;durP2;ratioP2
3777;SDS011;1904;50.076;8.660;2022-11-11T00:01:55;24.23;;;8.70;;
3777;SDS011;1904;50.076;8.660;2022-11-11T00:04:25;29.60;;;9.93;;
3777;SDS011;1904;50.076;8.660;2022-11-11T00:06:52;20.73;;;9.70;;
3777;SDS011;1904;50.076;8.660;2022-11-11T00:09:25;19.65;;;8.80;;
3777;SDS011;1904;50.076;8.660;2022-11-11T00:11:55;25.67;;;9.30;;
3777;SDS011;1904;50.076;8.660;2022-11-11T00:17:32;21.00;;;9.20;;
3777;SDS011;1904;50.076;8.660;2022-11-11T00:23:39;22.80;;;9.17;;
3777;SDS011;1904;50.076;8.660;2022-11-11T00:30:01;27.47;;;10.17;;
3777;SDS011;1904;50.076;8.660;2022-11-11T00:35:14;26.03;;;10.00;;
3777;SDS011;1904;50.076;8.660;2022-11-11T00:50:54;22.48;;;9.55;;
3777;SDS011;1904;50.076;8.660;2022-11-11T00:56:55;19.03;;;9.33;;
3777;SDS011;1904;50.076;8.660;2022-11-11T00:59:37;27.50;;;9.20;;
3777;SDS011;1904;50.076;8.660;2022-11-11T01:02:04;17.30;;;9.63;;
3777;SDS011;1904;50.076;8.660;2022-11-11T01:04:31;23.37;;;9.40;;
3777;SDS011;1904;50.076;8.660;2022-11-11T01:10:19;20.07;;;9.20;;
3777;SDS011;1904;50.076;8.660;2022-11-11T01:13:14;27.67;;;9.40;;
3777;SDS011;1904;50.076;8.660;2022-11-11T01:19:13;23.73;;;10.97;;
3777;SDS011;1904;50.076;8.660;2022-11-11T01:31:03;20.63;;;9.30;;
3777;SDS011;1904;50.076;8.660;2022-11-11T01:36:52;17.33;;;10.03;;
3777;SDS011;1904;50.076;8.660;2022-11-11T01:39:19;18.70;;;9.03;;
3777;SDS011;1904;50.076;8.660;2022-11-11T01:54:07;18.90;;;10.57;;
3777;SDS011;1904;50.076;8.660;2022-11-11T01:59:59;27.40;;;11.10;;
3777;SDS011;1904;50.076;8.660;2022-11-11T02:02:44;26.35;;;10.73;;
3777;SDS011;1904;50.076;8.660;2022-11-11T02:05:19;25.10;;;10.60;;
3777;SDS011;1904;50.076;8.660;2022-11-11T02:08:10;22.23;;;11.00;;
3777;SDS011;1904;50.076;8.660;2022-11-11T02:10:41;24.40;;;11.67;;
3777;SDS011;1904;50.076;8.660;2022-11-11T02:13:25;22.43;;;10.73;;
3777;SDS011;1904;50.076;8.660;2022-11-11T02:16:13;25.07;;;10.03;;
3777;SDS011;1904;50.076;8.660;2022-11-11T02:18:39;22.60;;;10.40;;
3777;SDS011;1904;50.076;8.660;2022-11-11T02:24:07;26.52;;;10.65;;
3777;SDS011;1904;50.076;8.660;2022-11-11T02:26:36;28.65;;;11.52;;
3777;SDS011;1904;50.076;8.660;2022-11-11T02:29:19;25.07;;;11.77;;
3777;SDS011;1904;50.076;8.660;2022-11-11T02:32:01;26.10;;;11.10;;
3777;SDS011;1904;50.076;8.660;2022-11-11T02:34:31;23.80;;;10.83;;
3777;SDS011;1904;50.076;8.660;2022-11-11T02:37:07;25.80;;;10.93;;
3777;SDS011;1904;50.076;8.660;2022-11-11T02:39:49;26.13;;;11.50;;
3777;SDS011;1904;50.076;8.660;2022-11-11T02:45:41;25.93;;;10.67;;
3777;SDS011;1904;50.076;8.660;2022-11-11T02:54:30;23.03;;;11.53;;
3777;SDS011;1904;50.076;8.660;2022-11-11T02:57:01;22.87;;;10.30;;
3777;SDS011;1904;50.076;8.660;2022-11-11T02:59:36;25.93;;;12.10;;
3777;SDS011;1904;50.076;8.660;2022-11-11T03:02:13;18.48;;;10.23;;
3777;SDS011;1904;50.076;8.660;2022-11-11T03:04:38;32.10;;;11.20;;
3777;SDS011;1904;50.076;8.660;2022-11-11T03:07:07;30.73;;;11.83;;
3777;SDS011;1904;50.076;8.660;2022-11-11T03:13:01;27.40;;;11.95;;
3777;SDS011;1904;50.076;8.660;2022-11-11T03:18:55;38.90;;;13.07;;
3777;SDS011;1904;50.076;8.660;2022-11-11T03:24:42;24.53;;;11.53;;
3777;SDS011;1904;50.076;8.660;2022-11-11T03:36:55;44.80;;;12.00;;
3777;SDS011;1904;50.076;8.660;2022-11-11T03:42:50;42.47;;;12.10;;
3777;SDS011;1904;50.076;8.660;2022-11-11T03:48:19;113.20;;;13.50;;
3777;SDS011;1904;50.076;8.660;2022-11-11T03:50:55;78.60;;;13.00;;
3777;SDS011;1904;50.076;8.660;2022-11-11T03:53:25;73.77;;;13.30;;
3777;SDS011;1904;50.076;8.660;2022-11-11T03:56:07;83.60;;;14.30;;
3777;SDS011;1904;50.076;8.660;2022-11-11T04:01:43;66.77;;;13.57;;
3777;SDS011;1904;50.076;8.660;2022-11-11T04:04:32;51.73;;;13.03;;
3777;SDS011;1904;50.076;8.660;2022-11-11T04:07:16;43.37;;;13.40;;
3777;SDS011;1904;50.076;8.660;2022-11-11T04:10:07;31.77;;;11.50;;
3777;SDS011;1904;50.076;8.660;2022-11-11T04:16:09;33.83;;;10.43;;
3777;SDS011;1904;50.076;8.660;2022-11-11T04:18:43;35.60;;;11.13;;
3777;SDS011;1904;50.076;8.660;2022-11-11T04:21:43;21.63;;;11.00;;
3777;SDS011;1904;50.076;8.660;2022-11-11T04:24:13;38.10;;;10.73;;
3777;SDS011;1904;50.076;8.660;2022-11-11T04:36:57;23.90;;;10.23;;
3777;SDS011;1904;50.076;8.660;2022-11-11T04:49:01;31.73;;;9.57;;
3777;SDS011;1904;50.076;8.660;2022-11-11T05:04:31;38.60;;;10.07;;
3777;SDS011;1904;50.076;8.660;2022-11-11T05:07:13;38.10;;;10.63;;
3777;SDS011;1904;50.076;8.660;2022-11-11T05:13:01;61.80;;;10.63;;
3777;SDS011;1904;50.076;8.660;2022-11-11T05:15:45;54.00;;;9.40;;
3777;SDS011;1904;50.076;8.660;2022-11-11T05:21:51;54.10;;;10.30;;
3777;SDS011;1904;50.076;8.660;2022-11-11T05:24:31;84.43;;;10.30;;
3777;SDS011;1904;50.076;8.660;2022-11-11T05:27:15;76.83;;;10.53;;
3777;SDS011;1904;50.076;8.660;2022-11-11T05:32:55;100.33;;;9.93;;
3777;SDS011;1904;50.076;8.660;2022-11-11T05:35:25;63.70;;;9.80;;
3777;SDS011;1904;50.076;8.660;2022-11-11T05:38:01;71.30;;;10.37;;
3777;SDS011;1904;50.076;8.660;2022-11-11T05:46:32;119.10;;;12.03;;
3777;SDS011;1904;50.076;8.660;2022-11-11T05:49:01;151.60;;;12.20;;
3777;SDS011;1904;50.076;8.660;2022-11-11T05:51:39;149.83;;;10.60;;
3777;SDS011;1904;50.076;8.660;2022-11-11T05:54:13;132.00;;;11.70;;
3777;SDS011;1904;50.076;8.660;2022-11-11T05:56:39;141.33;;;13.40;;
3777;SDS011;1904;50.076;8.660;2022-11-11T05:59:07;132.63;;;11.90;;
3777;SDS011;1904;50.076;8.660;2022-11-11T06:01:34;329.00;;;15.80;;
3777;SDS011;1904;50.076;8.660;2022-11-11T06:04:01;198.07;;;13.23;;
3777;SDS011;1904;50.076;8.660;2022-11-11T06:06:28;237.33;;;14.40;;
3777;SDS011;1904;50.076;8.660;2022-11-11T06:08:54;189.80;;;13.20;;
3777;SDS011;1904;50.076;8.660;2022-11-11T06:11:25;143.90;;;11.50;;
3777;SDS011;1904;50.076;8.660;2022-11-11T06:13:54;104.93;;;11.20;;
3777;SDS011;1904;50.076;8.660;2022-11-11T06:16:21;153.70;;;11.97;;
3777;SDS011;1904;50.076;8.660;2022-11-11T06:18:48;119.53;;;11.97;;
3777;SDS011;1904;50.076;8.660;2022-11-11T06:21:25;170.63;;;11.77;;
3777;SDS011;1904;50.076;8.660;2022-11-11T06:23:52;142.13;;;11.97;;
3777;SDS011;1904;50.076;8.660;2022-11-11T06:26:17;106.57;;;10.80;;
3777;SDS011;1904;50.076;8.660;2022-11-11T06:28:50;161.33;;;12.40;;
3777;SDS011;1904;50.076;8.660;2022-11-11T06:31:26;135.40;;;12.43;;
3777;SDS011;1904;50.076;8.660;2022-11-11T06:33:52;179.53;;;13.70;;
3777;SDS011;1904;50.076;8.660;2022-11-11T06:36:19;171.90;;;12.27;;
3777;SDS011;1904;50.076;8.660;2022-11-11T06:38:45;115.07;;;11.93;;
3777;SDS011;1904;50.076;8.660;2022-11-11T06:41:12;126.23;;;11.70;;
3777;SDS011;1904;50.076;8.660;2022-11-11T06:43:39;164.57;;;12.13;;
3777;SDS011;1904;50.076;8.660;2022-11-11T06:46:06;129.93;;;11.93;;
3777;SDS011;1904;50.076;8.660;2022-11-11T06:48:37;121.33;;;12.03;;
3777;SDS011;1904;50.076;8.660;2022-11-11T06:51:06;94.23;;;11.03;;
3777;SDS011;1904;50.076;8.660;2022-11-11T06:53:33;118.93;;;11.33;;
3777;SDS011;1904;50.076;8.660;2022-11-11T06:56:00;101.30;;;10.70;;
3777;SDS011;1904;50.076;8.660;2022-11-11T06:58:26;109.87;;;11.47;;
3777;SDS011;1904;50.076;8.660;2022-11-11T07:00:52;116.83;;;12.10;;
3777;SDS011;1904;50.076;8.660;2022-11-11T07:03:18;104.03;;;10.80;;
3777;SDS011;1904;50.076;8.660;2022-11-11T07:05:45;149.03;;;11.50;;
3777;SDS011;1904;50.076;8.660;2022-11-11T07:10:56;159.10;;;12.63;;
3777;SDS011;1904;50.076;8.660;2022-11-11T07:13:22;148.70;;;10.93;;
3777;SDS011;1904;50.076;8.660;2022-11-11T07:15:48;108.27;;;11.10;;
3777;SDS011;1904;50.076;8.660;2022-11-11T07:18:14;64.13;;;10.30;;
3777;SDS011;1904;50.076;8.660;2022-11-11T07:20:40;84.63;;;10.30;;
3777;SDS011;1904;50.076;8.660;2022-11-11T07:23:06;135.50;;;12.60;;
3777;SDS011;1904;50.076;8.660;2022-11-11T07:25:32;90.87;;;10.67;;
3777;SDS011;1904;50.076;8.660;2022-11-11T07:27:58;115.13;;;11.30;;
3777;SDS011;1904;50.076;8.660;2022-11-11T07:30:24;55.40;;;9.83;;
3777;SDS011;1904;50.076;8.660;2022-11-11T07:32:50;127.23;;;11.80;;
3777;SDS011;1904;50.076;8.660;2022-11-11T07:35:17;115.30;;;11.20;;
3777;SDS011;1904;50.076;8.660;2022-11-11T07:37:44;77.80;;;10.40;;
3777;SDS011;1904;50.076;8.660;2022-11-11T07:40:11;91.37;;;9.67;;
3777;SDS011;1904;50.076;8.660;2022-11-11T07:42:39;81.87;;;10.87;;
3777;SDS011;1904;50.076;8.660;2022-11-11T07:45:06;75.83;;;10.30;;
3777;SDS011;1904;50.076;8.660;2022-11-11T07:47:32;115.27;;;10.37;;
3777;SDS011;1904;50.076;8.660;2022-11-11T07:49:59;86.60;;;11.10;;
3777;SDS011;1904;50.076;8.660;2022-11-11T07:52:29;84.77;;;9.30;;
3777;SDS011;1904;50.076;8.660;2022-11-11T07:54:55;64.87;;;9.90;;
3777;SDS011;1904;50.076;8.660;2022-11-11T07:57:20;86.13;;;10.50;;
3777;SDS011;1904;50.076;8.660;2022-11-11T07:59:46;43.63;;;9.70;;
3777;SDS011;1904;50.076;8.660;2022-11-11T08:02:12;20.60;;;9.20;;
3777;SDS011;1904;50.076;8.660;2022-11-11T08:04:38;101.03;;;10.90;;
3777;SDS011;1904;50.076;8.660;2022-11-11T08:07:04;74.77;;;10.20;;
3777;SDS011;1904;50.076;8.660;2022-11-11T08:09:30;37.43;;;9.23;;
3777;SDS011;1904;50.076;8.660;2022-11-11T08:11:56;30.73;;;9.40;;
3777;SDS011;1904;50.076;8.660;2022-11-11T08:14:40;42.00;;;9.97;;
3777;SDS011;1904;50.076;8.660;2022-11-11T08:17:13;36.97;;;8.93;;
3777;SDS011;1904;50.076;8.660;2022-11-11T08:26:13;44.97;;;8.97;;
3777;SDS011;1904;50.076;8.660;2022-11-11T08:28:50;31.80;;;8.87;;
3777;SDS011;1904;50.076;8.660;2022-11-11T08:31:19;35.37;;;9.60;;
3777;SDS011;1904;50.076;8.660;2022-11-11T08:36:43;20.50;;;9.07;;
3777;SDS011;1904;50.076;8.660;2022-11-11T08:39:19;18.50;;;7.57;;
3777;SDS011;1904;50.076;8.660;2022-11-11T08:41:55;25.00;;;8.80;;
3777;SDS011;1904;50.076;8.660;2022-11-11T08:47:31;18.07;;;8.17;;
3777;SDS011;1904;50.076;8.660;2022-11-11T08:50:13;24.23;;;8.07;;
3777;SDS011;1904;50.076;8.660;2022-11-11T08:59:01;24.40;;;9.20;;
3777;SDS011;1904;50.076;8.660;2022-11-11T09:01:27;31.27;;;11.17;;
3777;SDS011;1904;50.076;8.660;2022-11-11T09:04:07;28.73;;;9.87;;
3777;SDS011;1904;50.076;8.660;2022-11-11T09:13:17;33.07;;;9.93;;
3777;SDS011;1904;50.076;8.660;2022-11-11T09:15:43;32.20;;;9.77;;
3777;SDS011;1904;50.076;8.660;2022-11-11T09:18:09;28.70;;;10.03;;
3777;SDS011;1904;50.076;8.660;2022-11-11T09:20:35;25.47;;;10.50;;
3777;SDS011;1904;50.076;8.660;2022-11-11T09:23:01;23.27;;;10.40;;
3777;SDS011;1904;50.076;8.660;2022-11-11T09:25:27;33.83;;;10.17;;
3777;SDS011;1904;50.076;8.660;2022-11-11T09:27:56;23.83;;;10.33;;
3777;SDS011;1904;50.076;8.660;2022-11-11T09:33:25;32.37;;;10.27;;
3777;SDS011;1904;50.076;8.660;2022-11-11T09:35:56;36.83;;;10.97;;
3777;SDS011;1904;50.076;8.660;2022-11-11T09:38:31;39.97;;;10.97;;
3777;SDS011;1904;50.076;8.660;2022-11-11T09:44:01;29.03;;;12.73;;
3777;SDS011;1904;50.076;8.660;2022-11-11T09:49:56;39.70;;;12.10;;
3777;SDS011;1904;50.076;8.660;2022-11-11T09:52:26;22.57;;;10.30;;
3777;SDS011;1904;50.076;8.660;2022-11-11T09:57:38;22.23;;;11.20;;
3777;SDS011;1904;50.076;8.660;2022-11-11T10:00:19;26.30;;;11.63;;
3777;SDS011;1904;50.076;8.660;2022-11-11T10:03:05;25.27;;;11.33;;
3777;SDS011;1904;50.076;8.660;2022-11-11T10:08:27;23.53;;;11.90;;
3777;SDS011;1904;50.076;8.660;2022-11-11T10:10:58;28.70;;;12.20;;
3777;SDS011;1904;50.076;8.660;2022-11-11T10:13:32;22.60;;;12.23;;
3777;SDS011;1904;50.076;8.660;2022-11-11T10:19:00;26.93;;;11.90;;
3777;SDS011;1904;50.076;8.660;2022-11-11T10:22:02;26.20;;;12.90;;
3777;SDS011;1904;50.076;8.660;2022-11-11T10:24:44;24.53;;;12.90;;
3777;SDS011;1904;50.076;8.660;2022-11-11T10:27:18;30.23;;;14.00;;
3777;SDS011;1904;50.076;8.660;2022-11-11T10:29:49;23.97;;;12.23;;
3777;SDS011;1904;50.076;8.660;2022-11-11T10:32:22;25.00;;;12.53;;
3777;SDS011;1904;50.076;8.660;2022-11-11T10:34:51;22.63;;;11.40;;
3777;SDS011;1904;50.076;8.660;2022-11-11T10:37:38;23.77;;;10.70;;
3777;SDS011;1904;50.076;8.660;2022-11-11T10:42:46;19.80;;;11.17;;
3777;SDS011;1904;50.076;8.660;2022-11-11T10:45:46;27.63;;;13.03;;
3777;SDS011;1904;50.076;8.660;2022-11-11T10:48:15;23.90;;;12.20;;
3777;SDS011;1904;50.076;8.660;2022-11-11T10:50:49;24.47;;;13.00;;
3777;SDS011;1904;50.076;8.660;2022-11-11T11:01:21;29.20;;;13.47;;
3777;SDS011;1904;50.076;8.660;2022-11-11T11:04:09;29.87;;;13.70;;
3777;SDS011;1904;50.076;8.660;2022-11-11T11:07:02;26.43;;;12.70;;
3777;SDS011;1904;50.076;8.660;2022-11-11T11:15:26;24.57;;;13.60;;
3777;SDS011;1904;50.076;8.660;2022-11-11T11:17:56;28.13;;;13.83;;
3777;SDS011;1904;50.076;8.660;2022-11-11T11:20:32;27.07;;;14.00;;
3777;SDS011;1904;50.076;8.660;2022-11-11T11:23:07;29.07;;;15.37;;
3777;SDS011;1904;50.076;8.660;2022-11-11T11:25:33;26.33;;;14.47;;
3777;SDS011;1904;50.076;8.660;2022-11-11T11:28:09;27.50;;;14.47;;
3777;SDS011;1904;50.076;8.660;2022-11-11T11:30:37;29.80;;;14.10;;
3777;SDS011;1904;50.076;8.660;2022-11-11T11:33:04;28.40;;;13.87;;
3777;SDS011;1904;50.076;8.660;2022-11-11T11:35:34;29.10;;;14.13;;
3777;SDS011;1904;50.076;8.660;2022-11-11T11:38:04;27.10;;;14.00;;
3777;SDS011;1904;50.076;8.660;2022-11-11T11:40:44;30.37;;;14.40;;
3777;SDS011;1904;50.076;8.660;2022-11-11T11:43:33;34.40;;;15.30;;
3777;SDS011;1904;50.076;8.660;2022-11-11T11:46:04;30.83;;;15.17;;
3777;SDS011;1904;50.076;8.660;2022-11-11T11:57:23;29.43;;;14.47;;
3777;SDS011;1904;50.076;8.660;2022-11-11T12:00:24;28.50;;;12.53;;
3777;SDS011;1904;50.076;8.660;2022-11-11T12:09:20;20.97;;;11.00;;
3777;SDS011;1904;50.076;8.660;2022-11-11T12:12:02;21.27;;;11.97;;
3777;SDS011;1904;50.076;8.660;2022-11-11T12:14:51;22.27;;;11.57;;
3777;SDS011;1904;50.076;8.660;2022-11-11T12:21:14;26.67;;;12.50;;
3777;SDS011;1904;50.076;8.660;2022-11-11T12:29:03;30.13;;;14.60;;
3777;SDS011;1904;50.076;8.660;2022-11-11T12:34:22;26.53;;;14.73;;
3777;SDS011;1904;50.076;8.660;2022-11-11T12:39:50;33.60;;;14.77;;
3777;SDS011;1904;50.076;8.660;2022-11-11T12:53:50;29.77;;;14.80;;
3777;SDS011;1904;50.076;8.660;2022-11-11T12:56:41;28.07;;;14.47;;
3777;SDS011;1904;50.076;8.660;2022-11-11T13:02:37;31.23;;;14.53;;
3777;SDS011;1904;50.076;8.660;2022-11-11T13:10:40;28.80;;;15.10;;
3777;SDS011;1904;50.076;8.660;2022-11-11T13:15:59;31.27;;;15.40;;
3777;SDS011;1904;50.076;8.660;2022-11-11T13:18:33;39.03;;;15.90;;
3777;SDS011;1904;50.076;8.660;2022-11-11T13:21:14;32.30;;;15.60;;
3777;SDS011;1904;50.076;8.660;2022-11-11T13:23:45;31.07;;;15.67;;
3777;SDS011;1904;50.076;8.660;2022-11-11T13:26:20;29.00;;;15.13;;
3777;SDS011;1904;50.076;8.660;2022-11-11T13:28:52;38.13;;;15.97;;
3777;SDS011;1904;50.076;8.660;2022-11-11T13:34:02;27.37;;;15.20;;
3777;SDS011;1904;50.076;8.660;2022-11-11T13:36:38;33.23;;;14.37;;
3777;SDS011;1904;50.076;8.660;2022-11-11T13:41:52;30.83;;;15.27;;
3777;SDS011;1904;50.076;8.660;2022-11-11T13:44:30;31.20;;;15.57;;
3777;SDS011;1904;50.076;8.660;2022-11-11T13:47:06;33.30;;;15.67;;
3777;SDS011;1904;50.076;8.660;2022-11-11T13:49:51;33.73;;;13.83;;
3777;SDS011;1904;50.076;8.660;2022-11-11T13:52:23;33.47;;;16.70;;
3777;SDS011;1904;50.076;8.660;2022-11-11T13:55:01;32.00;;;15.37;;
3777;SDS011;1904;50.076;8.660;2022-11-11T13:57:30;39.63;;;17.00;;
3777;SDS011;1904;50.076;8.660;2022-11-11T14:00:06;34.07;;;15.83;;
3777;SDS011;1904;50.076;8.660;2022-11-11T14:05:46;30.00;;;14.53;;
3777;SDS011;1904;50.076;8.660;2022-11-11T14:14:43;28.63;;;13.50;;
3777;SDS011;1904;50.076;8.660;2022-11-11T14:17:00;28.23;;;13.40;;
3777;SDS011;1904;50.076;8.660;2022-11-11T14:19:36;36.03;;;13.50;;
3777;SDS011;1904;50.076;8.660;2022-11-11T14:24:53;33.30;;;15.20;;
3777;SDS011;1904;50.076;8.660;2022-11-11T14:27:22;31.97;;;16.43;;
3777;SDS011;1904;50.076;8.660;2022-11-11T14:32:58;35.20;;;15.80;;
3777;SDS011;1904;50.076;8.660;2022-11-11T14:35:35;41.10;;;16.60;;
3777;SDS011;1904;50.076;8.660;2022-11-11T14:38:19;31.50;;;15.60;;
3777;SDS011;1904;50.076;8.660;2022-11-11T14:40:52;35.00;;;16.10;;
3777;SDS011;1904;50.076;8.660;2022-11-11T14:43:39;35.10;;;16.37;;
3777;SDS011;1904;50.076;8.660;2022-11-11T14:46:10;33.47;;;15.70;;
3777;SDS011;1904;50.076;8.660;2022-11-11T14:48:53;30.87;;;16.13;;
3777;SDS011;1904;50.076;8.660;2022-11-11T15:00:08;41.23;;;16.73;;
3777;SDS011;1904;50.076;8.660;2022-11-11T15:11:10;40.23;;;16.93;;
3777;SDS011;1904;50.076;8.660;2022-11-11T15:34:39;60.40;;;24.23;;
3777;SDS011;1904;50.076;8.660;2022-11-11T15:37:20;59.10;;;24.47;;
3777;SDS011;1904;50.076;8.660;2022-11-11T15:39:49;65.03;;;25.60;;
3777;SDS011;1904;50.076;8.660;2022-11-11T15:45:23;70.40;;;26.93;;
3777;SDS011;1904;50.076;8.660;2022-11-11T15:47:56;62.73;;;24.77;;
3777;SDS011;1904;50.076;8.660;2022-11-11T15:53:43;62.53;;;24.90;;
3777;SDS011;1904;50.076;8.660;2022-11-11T15:59:16;65.30;;;24.93;;
3777;SDS011;1904;50.076;8.660;2022-11-11T16:01:56;60.17;;;24.63;;
3777;SDS011;1904;50.076;8.660;2022-11-11T16:04:33;65.53;;;25.80;;
3777;SDS011;1904;50.076;8.660;2022-11-11T16:07:02;66.57;;;25.37;;
3777;SDS011;1904;50.076;8.660;2022-11-11T16:09:29;76.40;;;20.20;;
3777;SDS011;1904;50.076;8.660;2022-11-11T16:12:02;107.13;;;22.73;;
3777;SDS011;1904;50.076;8.660;2022-11-11T16:17:17;68.63;;;21.43;;
3777;SDS011;1904;50.076;8.660;2022-11-11T16:19:50;85.80;;;22.63;;
3777;SDS011;1904;50.076;8.660;2022-11-11T16:30:50;100.00;;;19.20;;
3777;SDS011;1904;50.076;8.660;2022-11-11T16:36:09;85.03;;;16.87;;
3777;SDS011;1904;50.076;8.660;2022-11-11T16:41:57;68.63;;;16.00;;
3777;SDS011;1904;50.076;8.660;2022-11-11T16:44:39;60.67;;;16.17;;
3777;SDS011;1904;50.076;8.660;2022-11-11T16:52:38;83.77;;;16.97;;
3777;SDS011;1904;50.076;8.660;2022-11-11T16:58:15;57.70;;;14.17;;
3777;SDS011;1904;50.076;8.660;2022-11-11T17:00:44;168.03;;;16.57;;
3777;SDS011;1904;50.076;8.660;2022-11-11T17:06:01;150.83;;;14.40;;
3777;SDS011;1904;50.076;8.660;2022-11-11T17:17:08;101.57;;;12.40;;
3777;SDS011;1904;50.076;8.660;2022-11-11T17:19:45;99.20;;;12.93;;
3777;SDS011;1904;50.076;8.660;2022-11-11T17:22:12;53.57;;;11.67;;
3777;SDS011;1904;50.076;8.660;2022-11-11T17:27:32;115.00;;;12.60;;
3777;SDS011;1904;50.076;8.660;2022-11-11T17:33:03;61.83;;;11.40;;
3777;SDS011;1904;50.076;8.660;2022-11-11T17:35:32;56.47;;;12.27;;
3777;SDS011;1904;50.076;8.660;2022-11-11T17:37:58;121.57;;;12.90;;
3777;SDS011;1904;50.076;8.660;2022-11-11T17:40:32;187.77;;;15.10;;
3777;SDS011;1904;50.076;8.660;2022-11-11T17:43:02;86.63;;;12.83;;
3777;SDS011;1904;50.076;8.660;2022-11-11T17:45:32;77.63;;;12.60;;
3777;SDS011;1904;50.076;8.660;2022-11-11T17:48:02;87.80;;;14.07;;
3777;SDS011;1904;50.076;8.660;2022-11-11T17:50:44;87.60;;;12.90;;
3777;SDS011;1904;50.076;8.660;2022-11-11T17:53:10;88.87;;;12.50;;
3777;SDS011;1904;50.076;8.660;2022-11-11T17:55:38;89.40;;;14.17;;
3777;SDS011;1904;50.076;8.660;2022-11-11T18:03:44;226.90;;;17.63;;
3777;SDS011;1904;50.076;8.660;2022-11-11T18:06:10;337.53;;;21.20;;
3777;SDS011;1904;50.076;8.660;2022-11-11T18:08:38;107.47;;;16.40;;
3777;SDS011;1904;50.076;8.660;2022-11-11T18:11:05;87.13;;;16.37;;
3777;SDS011;1904;50.076;8.660;2022-11-11T18:13:33;288.23;;;18.77;;
3777;SDS011;1904;50.076;8.660;2022-11-11T18:16:12;306.93;;;17.40;;
3777;SDS011;1904;50.076;8.660;2022-11-11T18:18:56;145.27;;;16.20;;
3777;SDS011;1904;50.076;8.660;2022-11-11T18:21:27;190.63;;;17.53;;
3777;SDS011;1904;50.076;8.660;2022-11-11T18:23:53;199.07;;;17.37;;
3777;SDS011;1904;50.076;8.660;2022-11-11T18:26:19;122.60;;;16.20;;
3777;SDS011;1904;50.076;8.660;2022-11-11T18:29:04;91.27;;;16.80;;
3777;SDS011;1904;50.076;8.660;2022-11-11T18:31:31;44.07;;;14.50;;
3777;SDS011;1904;50.076;8.660;2022-11-11T18:34:02;98.77;;;15.47;;
3777;SDS011;1904;50.076;8.660;2022-11-11T18:36:28;101.37;;;15.93;;
3777;SDS011;1904;50.076;8.660;2022-11-11T18:41:56;210.37;;;16.37;;
3777;SDS011;1904;50.076;8.660;2022-11-11T18:44:26;126.97;;;15.43;;
3777;SDS011;1904;50.076;8.660;2022-11-11T18:47:02;106.70;;;16.30;;
3777;SDS011;1904;50.076;8.660;2022-11-11T18:49:28;139.90;;;14.47;;
3777;SDS011;1904;50.076;8.660;2022-11-11T18:51:54;114.77;;;15.17;;
3777;SDS011;1904;50.076;8.660;2022-11-11T18:54:38;53.30;;;13.80;;
3777;SDS011;1904;50.076;8.660;2022-11-11T18:57:08;57.33;;;11.60;;
3777;SDS011;1904;50.076;8.660;2022-11-11T18:59:38;48.27;;;11.50;;
3777;SDS011;1904;50.076;8.660;2022-11-11T19:02:14;71.27;;;13.00;;
3777;SDS011;1904;50.076;8.660;2022-11-11T19:04:44;83.67;;;14.63;;
3777;SDS011;1904;50.076;8.660;2022-11-11T19:07:26;105.03;;;13.13;;
3777;SDS011;1904;50.076;8.660;2022-11-11T19:10:02;45.50;;;12.50;;
3777;SDS011;1904;50.076;8.660;2022-11-11T19:12:28;43.10;;;12.30;;
3777;SDS011;1904;50.076;8.660;2022-11-11T19:14:54;66.60;;;11.80;;
3777;SDS011;1904;50.076;8.660;2022-11-11T19:17:32;72.33;;;12.90;;
3777;SDS011;1904;50.076;8.660;2022-11-11T19:20:03;117.17;;;14.83;;
3777;SDS011;1904;50.076;8.660;2022-11-11T19:22:38;38.03;;;11.70;;
3777;SDS011;1904;50.076;8.660;2022-11-11T19:25:04;68.13;;;12.63;;
3777;SDS011;1904;50.076;8.660;2022-11-11T19:27:32;79.80;;;13.30;;
3777;SDS011;1904;50.076;8.660;2022-11-11T19:30:02;46.03;;;11.50;;
3777;SDS011;1904;50.076;8.660;2022-11-11T19:32:32;35.83;;;11.50;;
3777;SDS011;1904;50.076;8.660;2022-11-11T19:35:02;35.23;;;12.10;;
3777;SDS011;1904;50.076;8.660;2022-11-11T19:37:28;47.23;;;12.23;;
3777;SDS011;1904;50.076;8.660;2022-11-11T19:39:56;46.83;;;12.60;;
3777;SDS011;1904;50.076;8.660;2022-11-11T19:42:32;44.97;;;12.37;;
3777;SDS011;1904;50.076;8.660;2022-11-11T19:45:02;77.50;;;11.60;;
3777;SDS011;1904;50.076;8.660;2022-11-11T19:47:32;64.43;;;12.00;;
3777;SDS011;1904;50.076;8.660;2022-11-11T19:50:02;45.20;;;11.53;;
3777;SDS011;1904;50.076;8.660;2022-11-11T19:52:32;112.93;;;12.67;;
3777;SDS011;1904;50.076;8.660;2022-11-11T19:55:02;133.30;;;12.00;;
3777;SDS011;1904;50.076;8.660;2022-11-11T20:00:50;71.53;;;14.30;;
3777;SDS011;1904;50.076;8.660;2022-11-11T20:06:38;56.83;;;12.17;;
3777;SDS011;1904;50.076;8.660;2022-11-11T20:09:06;85.80;;;11.50;;
3777;SDS011;1904;50.076;8.660;2022-11-11T20:26:44;44.40;;;9.73;;
3777;SDS011;1904;50.076;8.660;2022-11-11T20:32:14;59.07;;;11.27;;
3777;SDS011;1904;50.076;8.660;2022-11-11T20:50:37;123.13;;;12.50;;
3777;SDS011;1904;50.076;8.660;2022-11-11T20:56:25;149.93;;;12.80;;
3777;SDS011;1904;50.076;8.660;2022-11-11T20:59:02;210.40;;;11.10;;
3777;SDS011;1904;50.076;8.660;2022-11-11T21:01:44;74.90;;;9.53;;
3777;SDS011;1904;50.076;8.660;2022-11-11T21:06:57;199.07;;;13.20;;
3777;SDS011;1904;50.076;8.660;2022-11-11T21:09:32;108.20;;;10.13;;
3777;SDS011;1904;50.076;8.660;2022-11-11T21:12:14;77.83;;;10.60;;
3777;SDS011;1904;50.076;8.660;2022-11-11T21:14:40;36.87;;;8.70;;
3777;SDS011;1904;50.076;8.660;2022-11-11T21:20:04;130.40;;;12.23;;
3777;SDS011;1904;50.076;8.660;2022-11-11T21:25:52;76.37;;;9.63;;
3777;SDS011;1904;50.076;8.660;2022-11-11T21:28:17;93.03;;;9.80;;
3777;SDS011;1904;50.076;8.660;2022-11-11T21:33:33;65.00;;;8.73;;
3777;SDS011;1904;50.076;8.660;2022-11-11T21:36:15;36.50;;;8.83;;
3777;SDS011;1904;50.076;8.660;2022-11-11T21:41:52;80.93;;;9.83;;
3777;SDS011;1904;50.076;8.660;2022-11-11T21:44:32;56.33;;;9.20;;
3777;SDS011;1904;50.076;8.660;2022-11-11T21:47:14;25.43;;;8.20;;
3777;SDS011;1904;50.076;8.660;2022-11-11T21:49:44;111.23;;;10.90;;
3777;SDS011;1904;50.076;8.660;2022-11-11T21:52:14;38.63;;;8.13;;
3777;SDS011;1904;50.076;8.660;2022-11-11T22:01:15;59.90;;;8.83;;
3777;SDS011;1904;50.076;8.660;2022-11-11T22:06:57;88.13;;;8.53;;
3777;SDS011;1904;50.076;8.660;2022-11-11T22:12:14;86.27;;;9.43;;
3777;SDS011;1904;50.076;8.660;2022-11-11T22:14:50;22.87;;;7.33;;
3777;SDS011;1904;50.076;8.660;2022-11-11T22:17:26;24.73;;;7.60;;
3777;SDS011;1904;50.076;8.660;2022-11-11T22:23:14;50.97;;;7.90;;
3777;SDS011;1904;50.076;8.660;2022-11-11T22:25:50;89.10;;;8.53;;
3777;SDS011;1904;50.076;8.660;2022-11-11T22:31:15;115.97;;;8.90;;
3777;SDS011;1904;50.076;8.660;2022-11-11T22:33:54;34.83;;;7.23;;
3777;SDS011;1904;50.076;8.660;2022-11-11T22:36:27;92.33;;;8.03;;
3777;SDS011;1904;50.076;8.660;2022-11-11T22:38:55;45.13;;;7.27;;
3777;SDS011;1904;50.076;8.660;2022-11-11T22:41:27;48.03;;;7.10;;
3777;SDS011;1904;50.076;8.660;2022-11-11T22:44:02;169.27;;;8.63;;
3777;SDS011;1904;50.076;8.660;2022-11-11T22:49:16;69.00;;;8.17;;
3777;SDS011;1904;50.076;8.660;2022-11-11T22:51:43;16.40;;;6.33;;
3777;SDS011;1904;50.076;8.660;2022-11-11T23:09:50;158.30;;;11.70;;
3777;SDS011;1904;50.076;8.660;2022-11-11T23:12:32;72.90;;;8.80;;
3777;SDS011;1904;50.076;8.660;2022-11-11T23:15:02;149.17;;;8.80;;
3777;SDS011;1904;50.076;8.660;2022-11-11T23:17:32;66.63;;;7.53;;
3777;SDS011;1904;50.076;8.660;2022-11-11T23:20:03;96.00;;;8.80;;
3777;SDS011;1904;50.076;8.660;2022-11-11T23:22:29;106.70;;;8.13;;
3777;SDS011;1904;50.076;8.660;2022-11-11T23:31:09;37.43;;;7.10;;
3777;SDS011;1904;50.076;8.660;2022-11-11T23:42:43;65.57;;;9.40;;
3777;SDS011;1904;50.076;8.660;2022-11-11T23:47:50;152.53;;;10.10;;